• Join FlightAware (Why Join?)
  • Login
  • US Flag 
01:31AM EDT


 

Airport Tracker/Info


-or-


 

Live Flight TrackerFlight Track Log ✈ CTL62 ✈ 22-Apr-2013 ✈ KOSU - KPWK

Flight Track Log - Related Links

Times and Time Zones

All times are in EDT time to prevent confusion due to time zone crossing. See the CTL62 flight status page for this flight to view local times or setup timezone preferences in your user account.

Time Position Orientation Groundspeed Altitude Reporting Facility
EDT Latitude Longitude Course Direction KTS MPH feet Rate Location/Type
11:06PM 40.0872 -83.1106 304° West 142 163 1,300  Level Indianapolis Center
11:07PM 40.1111 -83.1569 304° West 171 197 2,000 660 Climbing Indianapolis Center
11:08PM 40.1206 -83.1733 307° West 167 192 2,200 600 Climbing Indianapolis Center
11:08PM 40.1367 -83.2119 299° West 174 200 2,600 660 Climbing Indianapolis Center
11:09PM 40.1458 -83.2281 307° West 171 197 2,900 780 Climbing Indianapolis Center
11:09PM 40.1603 -83.2639 298° West 165 190 3,400 960 Climbing Indianapolis Center
11:10PM 40.1689 -83.2794 306° West 168 193 3,900 960 Climbing Indianapolis Center
11:10PM 40.1822 -83.3100 300° West 144 166 4,400 780 Climbing Indianapolis Center
11:11PM 40.1908 -83.3261 305° West 159 183 4,700 780 Climbing Indianapolis Center
11:12PM 40.2114 -83.3736 300° West 153 176 5,600 600 Climbing Indianapolis Center
11:13PM 40.2336 -83.4222 301° West 152 175 6,000 180 Climbing Indianapolis Center
11:14PM 40.2597 -83.4781 302° West 165 190 6,000  Level Indianapolis Center
11:15PM 40.2889 -83.5450 300° West 179 206 6,000  Level Indianapolis Center
11:16PM 40.3153 -83.6019 301° West 181 208 6,000  Level Indianapolis Center
11:17PM 40.3417 -83.6589 301° West 181 208 6,000  Level Indianapolis Center
11:18PM 40.3681 -83.7156 301° West 181 208 6,000  Level Indianapolis Center
11:19PM 40.3939 -83.7731 301° West 181 208 6,000  Level Indianapolis Center
11:20PM 40.4200 -83.8311 301° West 183 211 6,000  Level Indianapolis Center
11:21PM 40.4458 -83.8886 301° West 182 209 6,000  Level Indianapolis Center
11:22PM 40.4708 -83.9469 299° West 182 209 6,000  Level Indianapolis Center
11:23PM 40.4972 -84.0050 301° West 183 211 6,000  Level Indianapolis Center
11:24PM 40.5256 -84.0611 304° West 184 212 6,000  Level Indianapolis Center
11:25PM 40.5525 -84.1189 302° West 183 211 6,000  Level Indianapolis Center
11:26PM 40.5781 -84.1772 300° West 183 211 6,000  Level Indianapolis Center
11:27PM 40.6053 -84.2347 302° West 183 211 6,000  Level Indianapolis Center
11:28PM 40.6300 -84.2914 300° West 181 208 6,000  Level Indianapolis Center
11:29PM 40.6553 -84.3475 301° West 179 206 6,000  Level Indianapolis Center
11:30PM 40.6806 -84.4039 301° West 178 205 6,000  Level Indianapolis Center
11:31PM 40.7047 -84.4578 301° West 178 205 6,000  Level Chicago Center
11:32PM 40.7300 -84.5139 301° West 178 205 6,000  Level Chicago Center
11:33PM 40.7600 -84.5811 301° West 178 205 6,100  Climbing Chicago Center
11:34PM 40.7847 -84.6372 300° West 177 204 6,000 -60 Descending Chicago Center
11:35PM 40.8103 -84.6919 302° West 177 204 6,000  Level Chicago Center
11:36PM 40.8353 -84.7486 300° West 177 204 6,000  Level Chicago Center
11:37PM 40.8597 -84.8050 300° West 177 204 6,100  Climbing Chicago Center
11:38PM 40.8839 -84.8606 300° West 176 203 6,100 -60 Level Chicago Center
11:39PM 40.9081 -84.9164 300° West 175 201 6,000  Descending Chicago Center
11:40PM 40.9322 -84.9717 300° West 175 201 6,100  Climbing Chicago Center
11:41PM 40.9544 -85.0311 296° West 176 203 6,100  Level Chicago Center
11:42PM 40.9781 -85.0872 299° West 176 203 6,100  Level Chicago Center
11:43PM 41.0025 -85.1439 300° West 176 203 6,100  Level Chicago Center
11:44PM 41.0275 -85.2003 300° West 178 205 6,100 -60 Level Chicago Center
11:45PM 41.0519 -85.2578 299° West 178 205 6,000  Descending Chicago Center
11:46PM 41.0758 -85.3131 300° West 175 201 6,100  Climbing Chicago Center
11:47PM 41.1064 -85.3778 302° West 173 199 6,100  Level Chicago Center
11:48PM 41.1319 -85.4333 301° West 175 201 6,100  Level Chicago Center
11:49PM 41.1556 -85.4881 300° West 172 198 6,100 -60 Level Chicago Center
11:50PM 41.1786 -85.5447 298° West 173 199 6,000  Descending Chicago Center
11:51PM 41.2000 -85.6006 297° West 172 198 6,100  Climbing Chicago Center
11:52PM 41.2233 -85.6567 299° West 172 198 6,100 -60 Level Chicago Center
11:53PM 41.2481 -85.7117 301° West 174 200 6,000 -60 Descending Chicago Center
11:54PM 41.2711 -85.7675 299° West 173 199 6,000  Level Chicago Center
11:55PM 41.2947 -85.8242 299° West 174 200 6,100  Climbing Chicago Center
11:56PM 41.3183 -85.8800 299° West 174 200 6,100  Level Chicago Center
11:57PM 41.3411 -85.9347 299° West 170 196 6,100  Level Chicago Center
11:58PM 41.3622 -85.9919 296° West 171 197 6,100  Level Chicago Center
11:59PM 41.3869 -86.0475 301° West 173 199 6,100  Level Chicago Center
12:00AM 41.4100 -86.1031 299° West 173 199 6,100  Level Chicago Center
12:02AM 41.4322 -86.1589 298° West 172 198 6,100  Level Chicago Center
12:03AM 41.4544 -86.2153 298° West 172 198 6,100  Level Chicago Center
12:04AM 41.4778 -86.2719 299° West 174 200 6,100  Level Chicago Center
12:05AM 41.5064 -86.3403 299° West 176 203 6,100  Level Chicago Center
12:06AM 41.5292 -86.3981 298° West 176 203 6,100  Level Chicago Center
12:07AM 41.5517 -86.4533 299° West 173 199 6,100  Level Chicago Center
12:08AM 41.5742 -86.5103 298° West 173 199 6,100  Level Chicago Center
12:09AM 41.5967 -86.5653 299° West 172 198 6,100  Level Chicago Center
12:10AM 41.6183 -86.6225 297° West 173 199 6,100  Level Chicago Center
12:11AM 41.6408 -86.6786 298° West 172 198 6,100  Level Chicago Center
12:12AM 41.6656 -86.7319 302° West 168 193 6,100  Level Chicago Center
12:13AM 41.6892 -86.7869 300° West 170 196 6,100  Level Chicago Center
12:14AM 41.7133 -86.8425 300° West 173 199 6,100  Level Chicago Center
12:15AM 41.7347 -86.8989 297° West 172 198 6,100  Level Chicago Center
12:16AM 41.7572 -86.9544 299° West 171 197 6,100  Level Chicago Center
12:17AM 41.7808 -87.0092 300° West 170 196 6,100 -60 Level Chicago Center
12:18AM 41.8042 -87.0656 299° West 172 198 6,000 -60 Descending Chicago Center
12:19AM 41.8258 -87.1208 298° West 171 197 6,000 -240 Level Chicago Center
12:20AM 41.8519 -87.1883 297° West 171 197 5,600 -600 Descending Chicago Center
12:21AM 41.8756 -87.2511 297° West 183 211 4,900 -840 Descending Chicago Center
12:22AM 41.9003 -87.3161 297° West 192 221 4,000 -540 Descending Chicago Center
12:23AM 41.9264 -87.3781 300° West 193 222 3,900  Descending Chicago Center
12:23AM 41.9333 -87.4167 284° West 175 201 4,000 -240 Climbing Chicago TRACON
12:24AM 41.9667 -87.4833 304° West 187 215 3,500 -480 Descending Chicago TRACON
12:26AM 42.0000 -87.5500 304° West 193 222 3,000 -600 Descending Chicago TRACON
12:27AM 42.0167 -87.6167 289° West 199 229 2,300 -660 Descending Chicago TRACON
12:27AM 42.0333 -87.6833 289° West 199 229 1,800 -480 Descending Chicago TRACON
12:28AM 42.0667 -87.7500 304° West 190 219 1,500 -300 Descending Chicago TRACON
12:31AM 42.0896 -87.8582 289° West  Level FlightAware Approximate
12:38AM 42.1000 -87.9000 289° West  Level FlightAware Approximate
12:39AM 42.1143 -87.9015 289° West  Level Estimated